Niles, Mississippi
Current Conditions -  °F | °C
As of 7:35 AM on Saturday 27 Dec 2014 (Local Time) from KRNV Reporting Station
Overcast Overcast  
Wind Chill: 13°   Ceiling: 4200
Heat Index: 13°   Visibility: 10mi
Dew Point: 12°   Wind: 9mph
Humidity: 98%   Direction: 150°SSE
Pressure: 30.1"   Gusts: 16mph
Location:  33.8277°N, 90.9559°W
Report Text: KRNV 271335Z AUTO 15008G14KT 10SM SCT010 BKN042 OVC050 13/12 A3010 RMK AO2 LTG DSNT W T01260123
Loading
Personal Weather Stations






























Interactive Weather Map New forecast layout! Learn more

10-Day Weather Forecast

Advertisements
Track Severe Weather on mobile